createdAt,value
2017-09-05T00:00:03.285Z,1017.33
2017-09-05T00:05:02.797Z,1017.29
2017-09-05T00:10:03.418Z,1017.33
2017-09-05T00:15:02.850Z,1017.35
2017-09-05T00:20:03.366Z,1017.39
2017-09-05T00:25:02.905Z,1017.39
2017-09-05T00:30:03.296Z,1017.36
2017-09-05T00:35:02.827Z,1017.32
2017-09-05T00:40:03.317Z,1017.3
2017-09-05T00:45:02.744Z,1017.28
2017-09-05T00:50:03.330Z,1017.39
2017-09-05T00:55:02.748Z,1017.35
2017-09-05T01:00:03.168Z,1017.29
2017-09-05T01:05:02.712Z,1017.16
2017-09-05T01:10:03.257Z,1017.06
2017-09-05T01:15:02.920Z,1017.12
2017-09-05T01:20:03.503Z,1017.08
2017-09-05T01:25:03.126Z,1017.1
2017-09-05T01:30:03.576Z,1017.12
2017-09-05T01:35:03.213Z,1017.07
2017-09-05T01:40:02.826Z,1017.07
2017-09-05T01:45:03.505Z,1017.06
2017-09-05T01:50:03.110Z,1017.01
2017-09-05T01:55:03.553Z,1016.99
2017-09-05T02:00:02.933Z,1016.98
2017-09-05T02:05:03.515Z,1016.98
2017-09-05T02:10:03.200Z,1016.88
2017-09-05T02:15:03.614Z,1016.87
2017-09-05T02:20:03.181Z,1016.82
2017-09-05T02:25:03.627Z,1016.82
2017-09-05T02:30:03.161Z,1016.87
2017-09-05T02:35:03.577Z,1016.97
2017-09-05T02:40:03.026Z,1016.9
2017-09-05T02:45:03.556Z,1016.93
2017-09-05T02:50:03.165Z,1016.9
2017-09-05T02:55:03.559Z,1016.85
2017-09-05T03:00:03.112Z,1016.77
2017-09-05T03:05:02.670Z,1016.76
2017-09-05T03:10:03.147Z,1016.82
2017-09-05T03:15:03.036Z,1016.89
2017-09-05T03:20:03.479Z,1016.8
2017-09-05T03:25:02.867Z,1016.75
2017-09-05T03:30:03.282Z,1016.8
2017-09-05T03:35:02.915Z,1016.74
2017-09-05T03:40:03.488Z,1016.74
2017-09-05T03:45:03.100Z,1016.71
2017-09-05T03:50:02.700Z,1016.69
2017-09-05T03:55:03.180Z,1016.7
2017-09-05T04:00:02.899Z,1016.71
2017-09-05T04:05:03.395Z,1016.78
2017-09-05T04:10:02.866Z,1016.72
2017-09-05T04:15:03.328Z,1016.75
2017-09-05T04:20:02.761Z,1016.74
2017-09-05T04:25:03.235Z,1016.71
2017-09-05T04:30:02.827Z,1016.72
2017-09-05T04:35:03.246Z,1016.71
2017-09-05T04:40:02.880Z,1016.67
2017-09-05T04:45:03.653Z,1016.74
2017-09-05T04:50:03.222Z,1016.76
2017-09-05T04:55:02.802Z,1016.71
2017-09-05T05:00:03.376Z,1016.71
2017-09-05T05:05:03.070Z,1016.78
2017-09-05T05:10:02.841Z,1016.81
2017-09-05T05:15:03.343Z,1016.9
2017-09-05T05:20:02.827Z,1016.72
2017-09-05T05:25:03.253Z,1016.75
2017-09-05T05:30:02.679Z,1016.8
2017-09-05T05:35:03.118Z,1016.82
2017-09-05T05:40:03.556Z,1016.79
2017-09-05T05:45:03.171Z,1016.74
2017-09-05T05:50:03.568Z,1016.79
2017-09-05T05:55:02.953Z,1016.75
2017-09-05T06:00:03.363Z,1016.78
2017-09-05T06:05:02.776Z,1016.76
2017-09-05T06:10:03.238Z,1016.78
2017-09-05T06:15:02.666Z,1016.84
2017-09-05T06:20:03.274Z,1016.69
2017-09-05T06:25:02.670Z,1016.65
2017-09-05T06:30:03.146Z,1016.7
2017-09-05T06:35:02.737Z,1016.67
2017-09-05T06:40:03.179Z,1016.7
2017-09-05T06:45:03.604Z,1016.72
2017-09-05T06:50:03.201Z,1016.74
2017-09-05T06:55:02.781Z,1016.83
2017-09-05T07:00:03.197Z,1016.83
2017-09-05T07:05:02.624Z,1016.75
2017-09-05T07:10:03.077Z,1016.76
2017-09-05T07:15:02.709Z,1016.72
2017-09-05T07:20:03.137Z,1016.58
2017-09-05T07:25:03.550Z,1016.65
2017-09-05T07:30:03.390Z,1016.66
2017-09-05T07:35:03.123Z,1016.67
2017-09-05T07:40:02.743Z,1016.66
2017-09-05T07:45:03.159Z,1016.67
2017-09-05T07:50:02.695Z,1016.66
2017-09-05T07:55:03.270Z,1016.55
2017-09-05T08:00:02.652Z,1016.59
2017-09-05T08:05:03.302Z,1016.48
2017-09-05T08:10:02.727Z,1016.52
2017-09-05T08:15:03.150Z,1016.44
2017-09-05T08:20:03.550Z,1016.52
2017-09-05T08:25:03.009Z,1016.51
2017-09-05T08:30:03.404Z,1016.45
2017-09-05T08:35:02.927Z,1016.4
2017-09-05T08:40:03.414Z,1016.39
2017-09-05T08:45:02.908Z,1016.42
2017-09-05T08:50:03.482Z,1016.42
2017-09-05T08:55:02.864Z,1016.42
2017-09-05T09:00:03.242Z,1016.5
2017-09-05T09:05:02.652Z,1016.47
2017-09-05T09:10:03.181Z,1016.45
2017-09-05T09:15:02.744Z,1016.35
2017-09-05T09:20:03.213Z,1016.31
2017-09-05T09:25:02.672Z,1016.25
2017-09-05T09:30:03.204Z,1016.23
2017-09-05T09:35:02.929Z,1016.25
2017-09-05T09:40:03.380Z,1016.27
2017-09-05T09:45:02.865Z,1016.21
2017-09-05T09:50:03.464Z,1016.15
2017-09-05T09:55:02.870Z,1016.2
2017-09-05T10:00:03.329Z,1016.21
2017-09-05T10:05:02.810Z,1016.15
2017-09-05T10:10:03.272Z,1016.08
2017-09-05T10:15:02.622Z,1016.05
2017-09-05T10:20:03.279Z,1016.07
2017-09-05T10:25:02.709Z,1015.97
2017-09-05T10:30:03.124Z,1015.92
2017-09-05T10:35:03.577Z,1015.91
2017-09-05T10:40:03.041Z,1015.94
2017-09-05T10:45:03.482Z,1016.08
2017-09-05T10:50:03.079Z,1015.93
2017-09-05T10:55:02.643Z,1015.94
2017-09-05T11:00:03.061Z,1015.95
2017-09-05T11:05:03.573Z,1015.91
2017-09-05T11:10:03.030Z,1016.02
2017-09-05T11:15:03.475Z,1015.93
2017-09-05T11:20:03.084Z,1015.93
2017-09-05T11:25:03.568Z,1015.78
2017-09-05T11:30:02.999Z,1015.81
2017-09-05T11:35:03.533Z,1015.88
2017-09-05T11:40:03.144Z,1015.93
2017-09-05T11:45:02.684Z,1015.89
2017-09-05T11:50:03.123Z,1015.97
2017-09-05T11:55:03.547Z,1015.82
2017-09-05T12:00:02.959Z,1015.86
2017-09-05T12:05:03.363Z,1015.98
2017-09-05T12:10:02.900Z,1015.85
2017-09-05T12:15:03.425Z,1015.92
2017-09-05T12:20:02.859Z,1015.95
2017-09-05T12:25:03.297Z,1015.91
2017-09-05T12:30:02.681Z,1015.8
2017-09-05T12:35:03.200Z,1015.88
2017-09-05T12:40:02.699Z,1015.79
2017-09-05T12:45:03.139Z,1015.68
2017-09-05T12:50:02.735Z,1015.64
2017-09-05T12:55:03.310Z,1015.62
2017-09-05T13:00:02.838Z,1015.6
2017-09-05T13:05:03.238Z,1015.53
2017-09-05T13:10:02.720Z,1015.6
2017-09-05T13:15:03.187Z,1015.54
2017-09-05T13:20:03.620Z,1015.45
2017-09-05T13:25:03.016Z,1015.4
2017-09-05T13:30:03.584Z,1015.32
2017-09-05T13:35:03.070Z,1015.31
2017-09-05T13:40:03.648Z,1015.21
2017-09-05T13:45:03.108Z,1015.1
2017-09-05T13:50:02.644Z,1015.07
2017-09-05T13:55:03.253Z,1015.08
2017-09-05T14:00:03.626Z,1015.04
2017-09-05T14:05:03.194Z,1014.95
2017-09-05T14:10:02.817Z,1014.82
2017-09-05T14:15:03.234Z,1014.75
2017-09-05T14:20:03.630Z,1014.76
2017-09-05T14:25:03.178Z,1014.71
2017-09-05T14:30:02.684Z,1014.73
2017-09-05T14:35:03.084Z,1014.68
2017-09-05T14:40:02.679Z,1014.69
2017-09-05T14:45:03.168Z,1014.71
2017-09-05T14:50:03.595Z,1014.8
2017-09-05T14:55:02.976Z,1014.76
2017-09-05T15:00:03.450Z,1014.75
2017-09-05T15:05:02.914Z,1014.62
2017-09-05T15:10:03.502Z,1014.66
2017-09-05T15:15:02.940Z,1014.59
2017-09-05T15:20:03.364Z,1014.58
2017-09-05T15:25:02.743Z,1014.56
2017-09-05T15:30:03.357Z,1014.46
2017-09-05T15:35:02.794Z,1014.54
2017-09-05T15:40:03.281Z,1014.52
2017-09-05T15:45:02.811Z,1014.52
2017-09-05T15:50:03.401Z,1014.58
2017-09-05T15:55:02.925Z,1014.54
2017-09-05T16:00:03.422Z,1014.54
2017-09-05T16:05:03.084Z,1014.49
2017-09-05T16:10:03.524Z,1014.49
2017-09-05T16:15:03.024Z,1014.48
2017-09-05T16:20:03.499Z,1014.47
2017-09-05T16:25:03.048Z,1014.45
2017-09-05T16:30:03.522Z,1014.47
2017-09-05T16:35:03.025Z,1014.47
2017-09-05T16:40:03.470Z,1014.32
2017-09-05T16:45:03.029Z,1014.32
2017-09-05T16:50:02.656Z,1014.24
2017-09-05T16:55:03.231Z,1014.24
2017-09-05T17:00:02.721Z,1014.14
2017-09-05T17:05:03.146Z,1014.19
2017-09-05T17:10:03.619Z,1014.14
2017-09-05T17:15:03.165Z,1014.1
2017-09-05T17:20:03.632Z,1014.08
2017-09-05T17:25:03.008Z,1014.18
2017-09-05T17:30:03.515Z,1014.14
2017-09-05T17:35:02.908Z,1014.17
2017-09-05T17:40:03.365Z,1014.08
2017-09-05T17:45:02.795Z,1014.16
2017-09-05T17:50:03.290Z,1014.14
2017-09-05T17:55:02.826Z,1014.15
2017-09-05T18:00:03.248Z,1014.16
2017-09-05T18:05:02.763Z,1014.1
2017-09-05T18:10:03.367Z,1014.13
2017-09-05T18:15:02.911Z,1014.24
2017-09-05T18:20:03.567Z,1014.19
2017-09-05T18:25:03.219Z,1014.21
2017-09-05T18:30:02.792Z,1014.24
2017-09-05T18:35:03.362Z,1014.22
2017-09-05T18:40:02.943Z,1014.24
2017-09-05T18:45:03.464Z,1014.25
2017-09-05T18:50:02.888Z,1014.27
2017-09-05T18:55:03.509Z,1014.26
2017-09-05T19:00:03.085Z,1014.31
2017-09-05T19:05:03.613Z,1014.23
2017-09-05T19:10:03.268Z,1014.35
2017-09-05T19:15:02.833Z,1014.26
2017-09-05T19:20:03.401Z,1014.23
2017-09-05T19:25:02.773Z,1014.23
2017-09-05T19:30:03.250Z,1014.18
2017-09-05T19:35:02.726Z,1014.16
2017-09-05T19:40:03.355Z,1014.1
2017-09-05T19:45:02.927Z,1014.16
2017-09-05T19:50:03.388Z,1014.1
2017-09-05T19:55:02.919Z,1014.14
2017-09-05T20:00:03.334Z,1014.07
2017-09-05T20:05:02.859Z,1014.16
2017-09-05T20:10:03.477Z,1014.15
2017-09-05T20:15:02.860Z,1014.37
2017-09-05T20:20:03.335Z,1014.4
2017-09-05T20:25:02.747Z,1014.42
2017-09-05T20:30:03.174Z,1014.49
2017-09-05T20:35:02.841Z,1014.5
2017-09-05T20:40:03.324Z,1014.7
2017-09-05T20:45:02.936Z,1014.6
2017-09-05T20:50:03.342Z,1014.67
2017-09-05T20:55:02.796Z,1014.67
2017-09-05T21:00:03.522Z,1014.75
2017-09-05T21:05:02.932Z,1014.78
2017-09-05T21:10:03.562Z,1014.77
2017-09-05T21:15:02.928Z,1014.77
2017-09-05T21:20:03.513Z,1014.62
2017-09-05T21:25:03.126Z,1014.63
2017-09-05T21:30:03.480Z,1014.64
2017-09-05T21:35:03.002Z,1014.62
2017-09-05T21:40:03.592Z,1014.62
2017-09-05T21:45:02.960Z,1014.58
2017-09-05T21:50:03.397Z,1014.65
2017-09-05T21:55:02.917Z,1014.61
2017-09-05T22:00:03.542Z,1014.56
2017-09-05T22:05:02.956Z,1014.43
2017-09-05T22:10:03.870Z,1014.38
2017-09-05T22:15:03.473Z,1014.38
2017-09-05T22:20:03.091Z,1014.35
2017-09-05T22:25:03.552Z,1014.26
2017-09-05T22:30:02.985Z,1014.29
2017-09-05T22:35:03.518Z,1014.24
2017-09-05T22:40:03.011Z,1014.21
2017-09-05T22:45:02.658Z,1014.18
2017-09-05T22:50:03.075Z,1014.21
2017-09-05T22:55:02.733Z,1014.21
2017-09-05T23:00:03.712Z,1014.24
2017-09-05T23:05:02.697Z,1014.11
2017-09-05T23:10:03.305Z,1014.05
2017-09-05T23:15:02.870Z,1014.08
2017-09-05T23:20:03.341Z,1014.04
2017-09-05T23:25:02.827Z,1014.01
2017-09-05T23:30:03.329Z,1013.99
2017-09-05T23:35:02.898Z,1013.94
2017-09-05T23:40:03.400Z,1013.92
2017-09-05T23:45:02.983Z,1013.88
2017-09-05T23:50:03.792Z,1013.85
2017-09-05T23:55:03.496Z,1013.78
